Airport View

Enter AWOS ICAO identifier for current METAR.

ex. KFNL

KLAW 191753Z 00000KT 10SM OVC070 28/19 A2982 RMK AO2 SLP085 T02830189 10289 20189 58008

19 Jun 2019 19:00

Phone: 580-581-1351

Other Area AWOS: KFSI - KDUC - KFDR - KSPS

TAF KLAW 191725Z 1918/2018 VRB04KT P6SM SCT080 TEMPO 1918/1920 BKN080 FM192100 33007KT P6SM SCT080 FM200300 15006KT P6SM FEW250